Decoded Metar for KFNL (FT COLLINS/LOVEL in CO, USA) (IATA:FNL) | Meteo·Mobile Aviation Weather
aviador You're here:

KFNL Decoded Metar

FT COLLINS/LOVEL in CO, USA
Report Time2018-12-16 03:56:00
UTC Time2018-12-16 04:24:11
Flight Rules vfr VFR
Wind040° at 04 kt
W.Decomp.*RWY 06: 3.5 kt HW 1.9 kt LCW
RWY 33: 1.9 kt HW 3.5 kt RCW
W.Rank040° ranks 17
Current wind is below 040° avg. (6.5)
Visibility9999 m
Phenomena:N/A
Clouds:N/A
Expected CloudBase > 2,400 ft AGL from Temp-Dew spread
CeilingNone
Temp-1°C (ISA -6)
Dew Point-7°C (64% RH)
AAT-5.2°C
QNH1022 hPa
Density Alt4,045 ft
Elevation5,016 ft
Report Wrong Elevation
Raw Report
KFNL 160356Z AUTO 04004KT 10SM CLR M01/M07 A3018 RMK AO2 SLP239
T10061072 FZRANO PNO $=

Extra information for KFNL:More info

Metar Taf Metar & Taf Last 4 Metars F.Rules Stats Wind Profile Meteogram Temp Stats Airport Information Weather charts Add Link Nearby VenuesMetar ALERT Operation Metar Decoded Social comments

AIRNAV info for KFNL